Time;durP1;ratioP1;P1;durP2;ratioP2;P2;SDS_P1;SDS_P2;PMS_P1;PMS_P2;Temp;Humidity;BMP_temperature;BMP_pressure;BME280_temperature;BME280_humidity;BME280_pressure;Samples;Min_cycle;Max_cycle;Signal;HPM_P1;HPM_P2
2023/11/16 00:01:07;;;;;;;5.60;3.60;;;;;;;9.09;70.42;98847.48;234242;215;136550;-61
2023/11/16 00:06:23;;;;;;;5.20;3.20;;;;;;;8.99;70.60;98850.02;234179;215;147403;-60
2023/11/16 00:11:29;;;;;;;6.40;3.70;;;;;;;8.90;70.89;98851.45;234294;215;138825;-62
2023/11/16 00:16:32;;;;;;;5.20;2.90;;;;;;;8.90;71.00;98852.52;234158;215;136246;-64
2023/11/16 00:21:36;;;;;;;3.70;2.50;;;;;;;8.84;71.09;98857.96;234195;215;146443;-64
2023/11/16 00:26:39;;;;;;;5.50;3.20;;;;;;;8.83;71.07;98867.96;234185;215;138936;-63
2023/11/16 00:31:43;;;;;;;4.60;3.50;;;;;;;8.88;71.12;98875.95;234110;215;136377;-63
2023/11/16 00:36:46;;;;;;;4.70;2.80;;;;;;;8.96;70.82;98876.05;234261;215;146384;-64
2023/11/16 00:41:49;;;;;;;5.20;2.90;;;;;;;8.94;70.81;98877.05;234324;216;139488;-64
2023/11/16 00:46:53;;;;;;;4.20;2.80;;;;;;;8.94;70.69;98880.96;234131;215;137524;-63
2023/11/16 00:51:57;;;;;;;4.50;2.70;;;;;;;8.91;70.17;98879.50;234207;215;148734;-65
2023/11/16 00:57:01;;;;;;;4.30;2.60;;;;;;;8.89;70.27;98882.80;234069;215;139641;-62
2023/11/16 01:02:05;;;;;;;4.60;2.70;;;;;;;8.84;70.16;98891.77;234097;215;137202;-63
2023/11/16 01:07:10;;;;;;;5.20;2.70;;;;;;;8.79;70.38;98890.45;234090;215;148984;-64
2023/11/16 01:12:17;;;;;;;4.60;2.30;;;;;;;8.75;70.72;98892.97;234191;215;140483;-64
2023/11/16 01:17:23;;;;;;;4.10;2.90;;;;;;;8.83;70.84;98895.40;234311;215;137552;-64
2023/11/16 01:22:29;;;;;;;5.60;2.90;;;;;;;8.89;70.80;98907.21;234193;215;147292;-61
2023/11/16 01:27:33;;;;;;;4.80;3.10;;;;;;;8.91;70.84;98909.04;234177;215;138731;-61
2023/11/16 01:32:36;;;;;;;5.10;3.10;;;;;;;8.89;71.00;98905.61;234077;215;136453;-61
2023/11/16 01:37:39;;;;;;;1027.30;624.50;;;;;;;8.87;71.18;98909.66;233697;215;149419;-63
2023/11/16 01:42:43;;;;;;;25.20;15.60;;;;;;;8.94;71.64;98911.70;234230;215;138802;-63
2023/11/16 01:47:46;;;;;;;8.90;6.10;;;;;;;8.94;71.26;98912.96;234440;215;137366;-63
2023/11/16 01:52:49;;;;;;;6.70;4.40;;;;;;;8.93;71.37;98927.89;234199;215;148438;-62
2023/11/16 01:57:54;;;;;;;7.30;4.30;;;;;;;8.87;71.60;98931.06;234209;215;138693;-62
2023/11/16 02:03:02;;;;;;;7.50;4.20;;;;;;;8.88;71.80;98932.75;234322;215;136726;-62
2023/11/16 02:08:10;;;;;;;8.50;5.00;;;;;;;8.93;71.85;98928.55;234301;215;147455;-61
2023/11/16 02:13:20;;;;;;;8.80;5.10;;;;;;;8.98;71.76;98925.29;234272;215;139468;-61
2023/11/16 02:18:25;;;;;;;10.20;6.00;;;;;;;9.01;71.55;98927.42;234233;215;136245;-61
2023/11/16 02:23:31;;;;;;;10.30;5.90;;;;;;;8.93;71.50;98927.52;234419;216;147480;-61
2023/11/16 02:28:34;;;;;;;8.20;5.60;;;;;;;8.86;71.69;98925.81;234293;215;139879;-61
2023/11/16 02:33:37;;;;;;;9.30;6.30;;;;;;;8.79;71.78;98930.26;234206;216;136626;-62
2023/11/16 02:38:40;;;;;;;9.60;6.70;;;;;;;8.70;72.07;98933.05;234341;215;148311;-62
2023/11/16 02:43:44;;;;;;;8.80;6.20;;;;;;;8.66;72.10;98936.65;234295;215;140083;-62
2023/11/16 02:48:48;;;;;;;10.80;6.80;;;;;;;8.68;72.20;98943.06;234253;215;138661;-62
2023/11/16 02:53:51;;;;;;;12.30;7.00;;;;;;;8.76;72.26;98948.12;234311;215;148671;-63
2023/11/16 02:58:55;;;;;;;11.00;7.10;;;;;;;8.82;72.11;98944.63;234467;215;139083;-62
2023/11/16 03:03:58;;;;;;;9.60;7.10;;;;;;;8.83;72.02;98948.98;234244;215;141730;-63
2023/11/16 03:09:04;;;;;;;9.20;7.10;;;;;;;8.84;72.17;98954.23;234345;215;147967;-62
2023/11/16 03:14:08;;;;;;;11.30;7.90;;;;;;;8.85;72.06;98962.52;234220;215;140201;-62
2023/11/16 03:19:11;;;;;;;11.00;7.50;;;;;;;8.82;72.10;98975.93;234210;215;137601;-62
2023/11/16 03:24:15;;;;;;;9.50;7.40;;;;;;;8.79;72.29;98973.96;234280;215;147432;-62
2023/11/16 03:29:20;;;;;;;9.60;6.90;;;;;;;8.77;72.30;98976.37;234351;215;139560;-62
2023/11/16 03:34:25;;;;;;;8.90;6.70;;;;;;;8.80;72.60;98973.55;234290;215;137883;-62
2023/11/16 03:39:31;;;;;;;10.30;7.80;;;;;;;8.90;72.51;98982.17;234053;215;147578;-62
2023/11/16 03:44:34;;;;;;;10.50;7.10;;;;;;;8.98;72.29;98986.67;233832;216;139592;-64
2023/11/16 03:49:39;;;;;;;13.30;7.70;;;;;;;9.00;72.05;98978.94;234099;215;137769;-63
2023/11/16 03:54:44;;;;;;;11.00;7.00;;;;;;;8.97;71.88;98985.30;234234;215;148494;-64
2023/11/16 03:59:49;;;;;;;12.00;7.90;;;;;;;8.90;72.01;98988.55;234376;215;138936;-61
2023/11/16 04:04:57;;;;;;;;;;;;;;;8.90;71.88;98991.94;234350;215;136479;-61
2023/11/16 04:10:04;;;;;;;10.10;7.20;;;;;;;8.87;71.96;98997.91;234415;215;149076;-61
2023/11/16 04:15:13;;;;;;;9.70;6.30;;;;;;;8.83;72.00;98994.23;234233;215;138705;-61
2023/11/16 04:20:17;;;;;;;11.80;5.80;;;;;;;8.80;71.63;98994.45;234309;215;138455;-61
2023/11/16 04:25:27;;;;;;;14.30;6.40;;;;;;;8.87;71.50;98994.05;234277;215;148068;-61
2023/11/16 04:30:31;;;;;;;11.00;6.10;;;;;;;8.90;71.44;98992.79;234201;216;138898;-61
2023/11/16 04:35:35;;;;;;;10.30;5.80;;;;;;;8.90;71.17;98992.64;234335;215;136629;-62
2023/11/16 04:40:38;;;;;;;95.70;76.90;;;;;;;8.89;71.00;98993.73;234222;215;148854;-60
2023/11/16 04:45:42;;;;;;;18.50;11.60;;;;;;;8.88;71.10;98990.05;234238;215;140098;-60
2023/11/16 04:50:46;;;;;;;23.00;14.00;;;;;;;8.84;71.02;98988.16;234289;215;137503;-59
2023/11/16 04:55:49;;;;;;;13.60;7.30;;;;;;;8.85;70.69;98998.39;234324;215;147730;-59
2023/11/16 05:00:52;;;;;;;13.60;7.70;;;;;;;8.81;70.25;99006.92;234208;215;139811;-61
2023/11/16 05:05:56;;;;;;;16.90;7.70;;;;;;;8.76;70.17;99018.00;234239;215;137156;-62
2023/11/16 05:10:59;;;;;;;13.10;7.60;;;;;;;8.72;70.41;99027.08;234184;215;147889;-62
2023/11/16 05:16:04;;;;;;;14.10;8.40;;;;;;;8.73;70.16;99025.73;234268;215;140216;-63
2023/11/16 05:21:08;;;;;;;89.60;71.50;;;;;;;8.74;70.06;99028.85;234304;215;137267;-61
2023/11/16 05:26:12;;;;;;;19.30;10.70;;;;;;;8.79;70.02;99031.10;234282;215;147589;-60
2023/11/16 05:31:15;;;;;;;16.40;9.50;;;;;;;8.79;69.45;99031.42;234264;215;138793;-60
2023/11/16 05:36:18;;;;;;;143.50;108.20;;;;;;;8.66;69.69;99034.29;234302;215;136377;-60
2023/11/16 05:41:22;;;;;;;21.40;13.20;;;;;;;8.65;69.90;99032.55;234377;215;147346;-61
2023/11/16 05:46:25;;;;;;;17.70;9.10;;;;;;;8.58;69.77;99039.29;234247;215;138590;-60
2023/11/16 05:51:35;;;;;;;15.20;8.90;;;;;;;8.48;69.78;99049.55;234331;215;137949;-60
2023/11/16 05:56:43;;;;;;;17.60;9.10;;;;;;;8.47;69.79;99054.02;234267;215;147265;-61
2023/11/16 06:01:47;;;;;;;18.70;9.40;;;;;;;8.54;69.84;99060.73;234269;216;138952;-62
2023/11/16 06:06:51;;;;;;;15.50;8.50;;;;;;;8.57;69.89;99057.79;234188;214;137677;-62
2023/11/16 06:11:59;;;;;;;40.90;30.30;;;;;;;8.49;70.29;99051.25;234280;213;148306;-64
2023/11/16 06:17:03;;;;;;;16.60;10.30;;;;;;;8.51;71.12;99053.47;234331;215;140880;-63
2023/11/16 06:22:06;;;;;;;19.80;12.10;;;;;;;8.52;71.02;99053.96;233966;213;136977;-64
2023/11/16 06:27:09;;;;;;;15.60;9.40;;;;;;;8.47;71.15;99058.29;234296;213;149939;-63
2023/11/16 06:32:12;;;;;;;15.50;8.90;;;;;;;8.42;71.53;99054.65;234223;214;143627;-62
2023/11/16 06:37:16;;;;;;;14.50;8.60;;;;;;;8.40;71.87;99054.63;234235;214;138388;-65
2023/11/16 06:42:20;;;;;;;13.10;8.80;;;;;;;8.46;72.17;99056.06;234169;215;147178;-62
2023/11/16 06:47:23;;;;;;;222.60;170.40;;;;;;;8.49;72.43;99053.40;234423;214;141594;-63
2023/11/16 06:52:27;;;;;;;13.90;9.00;;;;;;;8.63;72.82;99054.61;234259;215;137010;-62
2023/11/16 06:57:30;;;;;;;16.70;9.70;;;;;;;8.64;72.57;99050.48;234169;215;148208;-63
2023/11/16 07:02:34;;;;;;;14.80;9.00;;;;;;;8.62;72.63;99050.94;234223;215;138948;-62
2023/11/16 07:07:41;;;;;;;16.40;9.40;;;;;;;8.64;72.85;99051.52;234252;216;137514;-63
2023/11/16 07:12:45;;;;;;;13.90;9.20;;;;;;;8.67;73.09;99049.98;234287;216;147946;-62
2023/11/16 07:17:49;;;;;;;14.00;9.00;;;;;;;8.66;73.23;99054.61;234396;213;138912;-63
2023/11/16 07:22:52;;;;;;;16.20;9.00;;;;;;;8.69;73.38;99052.52;234225;213;137638;-63
2023/11/16 07:27:55;;;;;;;12.30;8.60;;;;;;;8.73;74.04;99045.04;234250;216;147299;-63
2023/11/16 07:32:59;;;;;;;11.20;7.60;;;;;;;8.77;73.70;99053.48;234240;216;138670;-63
2023/11/16 07:38:09;;;;;;;8.90;7.20;;;;;;;8.81;73.56;99063.36;234194;215;139179;-63
2023/11/16 07:43:13;;;;;;;10.70;7.90;;;;;;;8.83;73.45;99062.35;234286;215;147401;-63
2023/11/16 07:48:17;;;;;;;11.70;7.80;;;;;;;8.89;73.28;99062.90;234280;215;139324;-63
2023/11/16 07:53:24;;;;;;;9.00;6.90;;;;;;;8.88;73.17;99064.94;234438;213;136591;-62
2023/11/16 07:58:28;;;;;;;9.30;7.30;;;;;;;8.87;73.14;99066.73;234237;216;147167;-62
2023/11/16 08:03:44;;;;;;;10.80;6.60;;;;;;;8.88;73.13;99064.75;234284;214;139440;-61
2023/11/16 08:08:49;;;;;;;8.90;6.40;;;;;;;8.88;73.02;99062.42;234272;216;137831;-62
2023/11/16 08:13:53;;;;;;;8.60;5.40;;;;;;;8.92;72.97;99068.03;234204;215;147815;-62
2023/11/16 08:18:56;;;;;;;8.90;5.00;;;;;;;8.96;72.85;99079.18;234210;215;140472;-62
2023/11/16 08:23:59;;;;;;;8.60;5.20;;;;;;;9.01;72.84;99079.07;234213;212;139629;-63
2023/11/16 08:29:03;;;;;;;7.10;5.30;;;;;;;9.09;72.38;99075.42;234361;214;148092;-62
2023/11/16 08:34:08;;;;;;;9.60;5.30;;;;;;;9.15;72.15;99066.41;234264;216;138832;-62
2023/11/16 08:39:14;;;;;;;10.20;5.60;;;;;;;9.16;71.94;99060.02;234245;215;137272;-62
2023/11/16 08:44:18;;;;;;;7.30;5.40;;;;;;;9.18;72.31;99057.05;234204;215;147253;-62
2023/11/16 08:49:23;;;;;;;8.10;5.20;;;;;;;9.30;72.41;99047.20;234128;215;140520;-63
2023/11/16 08:54:27;;;;;;;7.90;5.20;;;;;;;9.37;72.03;99047.17;234247;213;137409;-62
2023/11/16 08:59:35;;;;;;;;;;;;;;;9.37;71.75;99049.11;234361;213;148726;-62
2023/11/16 09:04:38;;;;;;;6.20;4.80;;;;;;;9.34;71.82;99045.88;234243;214;139124;-63
2023/11/16 09:09:45;;;;;;;6.20;4.70;;;;;;;9.39;71.86;99046.83;234292;216;136585;-63
2023/11/16 09:14:49;;;;;;;7.40;5.00;;;;;;;9.50;71.62;99047.12;234259;216;147324;-62
2023/11/16 09:19:53;;;;;;;6.50;4.70;;;;;;;9.62;71.06;99036.67;233975;216;138613;-62
2023/11/16 09:25:00;;;;;;;13.50;9.40;;;;;;;9.77;71.32;99031.92;234085;209;138992;-62
2023/11/16 09:30:05;;;;;;;5.80;4.60;;;;;;;9.91;70.04;99031.02;233989;214;148246;-62
2023/11/16 09:35:15;;;;;;;7.60;5.10;;;;;;;9.80;69.56;99030.48;234228;214;138976;-62
2023/11/16 09:40:21;;;;;;;9.30;5.20;;;;;;;9.76;69.53;99028.25;234184;214;137379;-62
2023/11/16 09:45:28;;;;;;;11.20;5.00;;;;;;;9.70;69.85;99029.08;234252;208;147391;-62
2023/11/16 09:50:33;;;;;;;86.40;52.10;;;;;;;9.76;74.61;99020.39;234142;215;138671;-46
2023/11/16 09:55:37;;;;;;;10.30;5.30;;;;;;;11.25;75.70;99005.67;234190;209;138378;-61
2023/11/16 10:00:44;;;;;;;6.60;5.00;;;;;;;11.06;68.72;98998.96;234157;212;147904;-63
2023/11/16 10:05:47;;;;;;;7.30;4.80;;;;;;;10.82;68.53;99000.52;234410;212;139703;-63
2023/11/16 10:11:21;;;;;;;5.90;4.70;;;;;;;10.74;68.59;98999.23;234195;213;137294;-63
2023/11/16 10:16:26;;;;;;;6.60;4.50;;;;;;;10.61;68.86;98994.19;234223;215;147737;-62
2023/11/16 10:21:29;;;;;;;6.30;5.10;;;;;;;10.51;68.98;98989.14;234145;213;138813;-64
2023/11/16 10:26:34;;;;;;;7.90;5.20;;;;;;;10.42;69.23;98982.95;234281;213;138342;-65
2023/11/16 10:31:44;;;;;;;8.80;4.70;;;;;;;10.44;69.08;98978.21;234116;213;148103;-64
2023/11/16 10:36:48;;;;;;;51.80;39.70;;;;;;;10.49;68.75;98974.54;234154;215;138571;-68
2023/11/16 10:41:52;;;;;;;9.00;6.00;;;;;;;10.54;69.06;98971.72;234362;208;136918;-60
2023/11/16 10:46:56;;;;;;;6.20;4.50;;;;;;;10.51;68.36;98965.52;234163;213;148305;-61
2023/11/16 10:52:01;;;;;;;8.20;4.20;;;;;;;10.48;68.65;98950.30;234105;214;139060;-61
2023/11/16 10:57:05;;;;;;;5.80;4.20;;;;;;;10.57;68.99;98935.91;234206;209;137449;-60
2023/11/16 11:02:10;;;;;;;6.70;4.50;;;;;;;10.62;69.02;98937.50;234165;213;148185;-63
2023/11/16 11:07:14;;;;;;;8.10;4.80;;;;;;;10.67;69.33;98932.80;234076;214;139529;-60
2023/11/16 11:12:19;;;;;;;6.60;4.60;;;;;;;10.78;69.54;98915.59;234195;213;136669;-60
2023/11/16 11:17:29;;;;;;;7.30;4.20;;;;;;;10.88;69.31;98914.20;234242;214;148216;-60
2023/11/16 11:22:32;;;;;;;6.10;4.10;;;;;;;10.85;68.64;98914.73;234165;213;139194;-59
2023/11/16 11:27:39;;;;;;;7.30;4.40;;;;;;;10.80;69.01;98913.12;234189;214;137189;-61
2023/11/16 11:32:46;;;;;;;7.90;4.10;;;;;;;10.83;69.07;98912.73;234179;212;148393;-64
2023/11/16 11:38:38;;;;;;;5.50;3.90;;;;;;;10.92;68.72;98907.02;234157;216;139947;-66
2023/11/16 11:43:44;;;;;;;5.60;4.00;;;;;;;11.14;68.35;98906.27;234320;213;137298;-65
2023/11/16 11:48:48;;;;;;;6.40;4.10;;;;;;;11.28;67.75;98896.80;234109;213;147965;-64
2023/11/16 11:53:53;;;;;;;8.90;4.40;;;;;;;11.34;67.62;98891.77;234122;214;138668;-65
2023/11/16 11:58:58;;;;;;;132.50;82.50;;;;;;;11.47;67.83;98884.34;234368;215;138194;-65
2023/11/16 12:04:04;;;;;;;9.70;5.70;;;;;;;11.73;67.12;98885.57;234239;214;148587;-65
2023/11/16 12:09:23;;;;;;;8.10;4.70;;;;;;;11.83;65.91;98882.42;234231;213;140018;-66
2023/11/16 12:14:26;;;;;;;9.50;4.10;;;;;;;11.78;65.55;98878.63;234137;213;137866;-65
2023/11/16 12:19:42;;;;;;;6.20;3.70;;;;;;;11.74;65.70;98866.27;234172;213;149157;-66
2023/11/16 12:24:49;;;;;;;5.40;3.50;;;;;;;11.78;65.83;98856.41;234192;213;139135;-66
2023/11/16 12:29:58;;;;;;;7.10;4.20;;;;;;;11.81;65.61;98844.33;234362;214;138417;-66
2023/11/16 12:35:05;;;;;;;6.60;4.30;;;;;;;11.79;65.35;98835.58;234397;207;147339;-65
2023/11/16 12:40:16;;;;;;;;;;;;;;;11.79;65.28;98827.36;234278;213;139512;-66
2023/11/16 12:45:20;;;;;;;9.30;4.10;;;;;;;11.81;65.10;98811.61;234307;213;132379;-65
2023/11/16 12:50:23;;;;;;;7.90;3.80;;;;;;;11.83;64.92;98806.84;234264;215;147380;-66
2023/11/16 12:55:27;;;;;;;8.90;4.70;;;;;;;11.83;65.02;98799.23;234264;211;142640;-65
2023/11/16 13:00:30;;;;;;;8.80;4.00;;;;;;;11.85;64.79;98805.14;234279;213;136553;-66
2023/11/16 13:05:34;;;;;;;12.90;5.20;;;;;;;11.83;64.91;98799.92;234360;209;147523;-66
2023/11/16 13:10:37;;;;;;;10.70;4.70;;;;;;;11.81;65.00;98804.66;234140;210;138896;-66
2023/11/16 13:15:44;;;;;;;13.90;4.40;;;;;;;11.80;65.04;98798.88;234246;213;138405;-65
2023/11/16 13:20:47;;;;;;;10.00;4.10;;;;;;;11.78;65.10;98791.20;234233;212;149162;-66
2023/11/16 13:25:50;;;;;;;7.60;3.80;;;;;;;11.85;65.27;98776.83;234177;208;141676;-66
2023/11/16 13:30:53;;;;;;;7.40;3.80;;;;;;;11.96;65.14;98769.89;234392;212;139168;-66
2023/11/16 13:35:57;;;;;;;16.60;4.10;;;;;;;12.10;65.34;98778.64;234528;213;147761;-67
2023/11/16 13:41:00;;;;;;;9.10;4.50;;;;;;;12.24;64.70;98773.69;234516;213;276106;-66
2023/11/16 13:46:05;;;;;;;8.60;4.40;;;;;;;12.26;64.35;98767.11;234359;208;139834;-67
2023/11/16 13:51:08;;;;;;;7.70;4.10;;;;;;;12.21;64.28;98756.86;234488;208;147612;-66
2023/11/16 13:56:11;;;;;;;7.10;3.70;;;;;;;12.15;64.07;98756.95;234588;207;142378;-64
2023/11/16 14:01:16;;;;;;;8.80;4.40;;;;;;;12.09;64.18;98758.44;234638;212;138440;-64
2023/11/16 14:06:20;;;;;;;9.50;4.10;;;;;;;12.01;64.13;98762.39;234545;212;147671;-63
2023/11/16 14:11:24;;;;;;;8.60;4.20;;;;;;;11.91;64.31;98754.95;234652;213;138960;-64
2023/11/16 14:16:27;;;;;;;13.50;4.80;;;;;;;11.89;64.43;98753.29;234536;213;137384;-64
2023/11/16 14:21:31;;;;;;;60.80;35.30;;;;;;;11.93;65.07;98751.25;234447;208;148526;-63
2023/11/16 14:26:34;;;;;;;8.90;4.10;;;;;;;11.96;65.13;98750.12;234510;215;140988;-68
2023/11/16 14:31:37;;;;;;;10.00;4.20;;;;;;;11.92;65.16;98747.55;234552;212;138087;-66
2023/11/16 14:36:40;;;;;;;12.60;4.50;;;;;;;11.84;65.52;98744.71;234834;207;146538;-66
2023/11/16 14:41:44;;;;;;;8.40;4.70;;;;;;;11.75;65.85;98742.69;234699;214;139841;-66
2023/11/16 14:46:49;;;;;;;10.30;4.80;;;;;;;11.71;66.21;98738.91;234688;212;138406;-66
2023/11/16 14:51:53;;;;;;;10.80;5.20;;;;;;;11.71;66.49;98739.61;234793;214;148542;-66
2023/11/16 14:56:58;;;;;;;17.30;6.80;;;;;;;11.69;66.66;98743.34;234478;213;140702;-66
2023/11/16 15:02:04;;;;;;;13.40;7.10;;;;;;;11.62;66.99;98737.57;234610;213;138196;-66
2023/11/16 15:07:07;;;;;;;18.70;6.80;;;;;;;11.56;67.27;98735.85;234761;214;147779;-67
2023/11/16 15:12:11;;;;;;;14.60;6.50;;;;;;;11.57;67.49;98723.52;234830;212;139001;-67
2023/11/16 15:17:16;;;;;;;13.00;6.50;;;;;;;11.59;67.68;98727.27;234708;214;137354;-67
2023/11/16 15:22:20;;;;;;;11.10;6.40;;;;;;;11.54;67.83;98728.19;234605;214;148819;-68
2023/11/16 15:27:23;;;;;;;9.80;6.40;;;;;;;11.44;68.35;98714.56;234581;213;139003;-67
2023/11/16 15:32:29;;;;;;;16.00;6.90;;;;;;;11.33;68.68;98716.35;234630;215;138569;-66
2023/11/16 15:37:33;;;;;;;15.40;6.40;;;;;;;11.25;69.30;98708.06;234736;215;148599;-66
2023/11/16 15:42:37;;;;;;;12.70;6.00;;;;;;;11.17;69.92;98699.71;234622;214;139026;-66
2023/11/16 15:47:40;;;;;;;11.30;6.90;;;;;;;11.16;70.27;98699.80;234945;213;136944;-67
2023/11/16 15:52:44;;;;;;;11.60;6.90;;;;;;;11.15;70.64;98702.90;234580;214;148232;-66
2023/11/16 15:57:49;;;;;;;10.40;6.60;;;;;;;11.16;70.90;98695.75;234529;215;140108;-67
2023/11/16 16:02:53;;;;;;;;;;;;;;;11.10;70.97;98696.82;234689;215;137874;-66
2023/11/16 16:07:57;;;;;;;13.00;7.80;;;;;;;11.05;71.15;98694.17;234854;213;149418;-67
2023/11/16 16:13:00;;;;;;;14.10;7.20;;;;;;;10.98;71.54;98695.02;234516;213;140841;-67
2023/11/16 16:18:04;;;;;;;10.90;7.00;;;;;;;10.92;71.75;98697.60;234384;215;137655;-67
2023/11/16 16:23:07;;;;;;;11.50;6.50;;;;;;;10.86;71.87;98687.69;234798;215;148452;-67
2023/11/16 16:28:11;;;;;;;11.00;6.20;;;;;;;10.83;72.06;98682.55;234516;215;140099;-67
2023/11/16 16:33:14;;;;;;;10.20;6.40;;;;;;;10.86;72.18;98673.48;234603;214;139058;-63
2023/11/16 16:38:17;;;;;;;14.90;7.00;;;;;;;10.89;72.12;98664.23;234620;214;147549;-64
2023/11/16 16:43:21;;;;;;;13.80;6.90;;;;;;;10.94;71.98;98661.40;234463;215;138813;-64
2023/11/16 16:48:25;;;;;;;12.30;7.70;;;;;;;10.90;71.97;98655.45;234617;214;138569;-64
2023/11/16 16:53:29;;;;;;;15.00;7.30;;;;;;;10.87;72.13;98654.98;234821;213;147770;-64
2023/11/16 16:58:33;;;;;;;14.30;7.60;;;;;;;10.82;72.36;98650.14;234609;215;138908;-64
2023/11/16 17:03:39;;;;;;;10.10;6.80;;;;;;;10.75;72.38;98668.04;234428;211;138775;-66
2023/11/16 17:08:43;;;;;;;21.40;12.40;;;;;;;10.77;73.19;98665.98;234345;215;148543;-63
2023/11/16 17:13:51;;;;;;;14.70;8.30;;;;;;;10.91;73.01;98660.55;234470;212;139525;-63
2023/11/16 17:18:55;;;;;;;15.20;7.70;;;;;;;11.00;72.93;98655.33;234635;212;137093;-64
2023/11/16 17:23:59;;;;;;;12.70;7.00;;;;;;;10.95;72.16;98651.95;234548;207;147326;-65
2023/11/16 17:29:03;;;;;;;9.20;6.20;;;;;;;10.86;71.91;98644.57;234618;207;140212;-63
2023/11/16 17:34:10;;;;;;;9.40;6.60;;;;;;;10.85;72.15;98636.85;234507;213;138724;-64
2023/11/16 17:39:14;;;;;;;11.10;6.90;;;;;;;10.82;72.65;98635.58;234585;212;148729;-63
2023/11/16 17:44:19;;;;;;;13.80;9.30;;;;;;;10.77;73.00;98630.48;234486;211;139976;-65
2023/11/16 17:49:23;;;;;;;18.20;10.10;;;;;;;10.72;73.11;98626.20;234523;207;138898;-64
2023/11/16 17:54:27;;;;;;;15.30;10.40;;;;;;;10.71;73.10;98620.46;234602;212;148268;-65
2023/11/16 17:59:30;;;;;;;16.20;11.40;;;;;;;10.70;73.25;98622.83;234656;213;139017;-65
2023/11/16 18:04:38;;;;;;;18.50;10.40;;;;;;;10.72;73.26;98626.40;234496;211;138116;-65
2023/11/16 18:09:42;;;;;;;16.70;11.10;;;;;;;10.70;73.15;98626.19;234716;207;147734;-64
2023/11/16 18:14:46;;;;;;;16.10;10.30;;;;;;;10.63;73.28;98623.28;234390;212;141282;-64
2023/11/16 18:19:49;;;;;;;18.30;11.00;;;;;;;10.58;73.40;98617.07;234501;208;139700;-65
2023/11/16 18:24:52;;;;;;;183.30;115.90;;;;;;;10.48;73.89;98619.84;234263;208;148692;-67
2023/11/16 18:29:56;;;;;;;41.00;18.20;;;;;;;10.58;74.00;98624.33;234426;212;140402;-62
2023/11/16 18:35:00;;;;;;;57.80;38.20;;;;;;;10.72;73.75;98628.35;234438;214;138230;-63
2023/11/16 18:40:08;;;;;;;22.40;13.40;;;;;;;10.92;73.52;98622.85;234325;208;147857;-60
2023/11/16 18:45:12;;;;;;;24.90;13.40;;;;;;;10.83;72.74;98619.38;234248;213;139050;-58
2023/11/16 18:50:15;;;;;;;19.00;13.20;;;;;;;10.72;72.93;98616.42;234161;212;137990;-59
2023/11/16 18:55:18;;;;;;;20.80;12.40;;;;;;;10.67;72.89;98619.48;234328;213;150079;-59
2023/11/16 19:00:22;;;;;;;29.40;17.70;;;;;;;10.61;73.07;98613.63;234356;208;138955;-59
2023/11/16 19:05:25;;;;;;;31.30;17.80;;;;;;;10.56;73.11;98610.48;234337;208;137156;-59
2023/11/16 19:10:30;;;;;;;27.70;16.80;;;;;;;10.49;73.30;98601.85;234258;213;147712;-59
2023/11/16 19:15:33;;;;;;;85.70;59.70;;;;;;;10.44;73.61;98598.30;234218;215;139210;-58
2023/11/16 19:20:37;;;;;;;52.80;37.70;;;;;;;10.68;74.24;98584.80;234307;213;139391;-59
2023/11/16 19:25:46;;;;;;;33.00;17.80;;;;;;;10.94;72.97;98568.58;234346;208;148035;-59
2023/11/16 19:30:50;;;;;;;30.50;16.90;;;;;;;10.91;72.10;98564.52;234139;212;141334;-59
2023/11/16 19:35:58;;;;;;;27.60;16.20;;;;;;;10.78;72.09;98563.83;234250;208;137741;-59
2023/11/16 19:41:02;;;;;;;25.30;15.90;;;;;;;10.57;72.16;98555.02;234411;213;149998;-60
2023/11/16 19:46:06;;;;;;;21.20;14.00;;;;;;;10.37;72.41;98554.26;234233;207;138939;-59
2023/11/16 19:51:10;;;;;;;24.80;14.40;;;;;;;10.21;72.85;98550.27;234281;211;138284;-59
2023/11/16 19:56:14;;;;;;;328.00;251.60;;;;;;;10.11;73.77;98551.30;234307;213;148037;-60
2023/11/16 20:01:17;;;;;;;31.50;20.20;;;;;;;10.19;74.12;98547.86;234294;212;140351;-58
2023/11/16 20:06:21;;;;;;;24.50;14.80;;;;;;;10.24;73.59;98541.71;234235;211;138761;-58
2023/11/16 20:11:24;;;;;;;22.30;14.00;;;;;;;10.21;73.54;98533.77;234396;213;149076;-58
2023/11/16 20:16:30;;;;;;;39.40;28.90;;;;;;;10.16;73.61;98529.64;234270;212;139723;-58
2023/11/16 20:21:36;;;;;;;54.90;40.10;;;;;;;10.21;74.41;98522.38;234380;215;138202;-57
2023/11/16 20:26:40;;;;;;;20.00;14.30;;;;;;;10.30;73.39;98515.76;234340;212;147929;-60
2023/11/16 20:31:43;;;;;;;22.80;15.50;;;;;;;10.20;73.07;98499.06;234358;215;140324;-62
2023/11/16 20:36:46;;;;;;;25.40;15.90;;;;;;;10.11;73.04;98489.20;234526;214;137656;-62
2023/11/16 20:41:50;;;;;;;24.20;15.70;;;;;;;10.02;72.96;98479.20;234421;215;147758;-62
2023/11/16 20:46:57;;;;;;;22.80;15.30;;;;;;;9.98;73.05;98480.39;234407;214;139914;-62
2023/11/16 20:52:01;;;;;;;26.40;17.40;;;;;;;10.00;73.25;98470.99;234392;215;137651;-63
2023/11/16 20:57:05;;;;;;;26.70;17.90;;;;;;;10.04;73.05;98464.50;234371;212;148365;-62
2023/11/16 21:02:09;;;;;;;27.80;18.20;;;;;;;10.05;73.02;98453.84;234395;213;138842;-62
2023/11/16 21:07:13;;;;;;;30.60;19.10;;;;;;;10.04;73.00;98448.05;234487;214;139916;-63
2023/11/16 21:12:16;;;;;;;29.00;18.90;;;;;;;10.00;72.83;98448.88;234399;215;147661;-62
2023/11/16 21:17:21;;;;;;;30.60;19.90;;;;;;;9.95;73.08;98439.29;234528;212;138981;-62
2023/11/16 21:22:26;;;;;;;28.30;20.20;;;;;;;9.89;73.11;98438.61;234397;214;137986;-62
2023/11/16 21:27:29;;;;;;;25.00;17.10;;;;;;;9.83;73.35;98439.42;234362;211;147455;-62
2023/11/16 21:32:33;;;;;;;28.00;18.50;;;;;;;9.80;73.44;98434.70;234302;215;138789;-61
2023/11/16 21:37:37;;;;;;;27.70;18.70;;;;;;;9.86;73.56;98424.13;234357;215;137391;-61
2023/11/16 21:42:41;;;;;;;25.20;17.60;;;;;;;9.91;73.28;98414.73;234464;215;148169;-62
2023/11/16 21:47:46;;;;;;;30.50;19.30;;;;;;;9.91;73.26;98411.75;234472;213;138842;-61
2023/11/16 21:52:50;;;;;;;31.50;19.40;;;;;;;9.88;73.18;98410.39;234399;213;136854;-62
2023/11/16 21:57:53;;;;;;;29.80;19.00;;;;;;;9.84;73.18;98406.70;234364;215;147450;-62
2023/11/16 22:02:57;;;;;;;30.10;19.00;;;;;;;9.85;73.07;98396.41;234297;215;139039;-63
2023/11/16 22:08:00;;;;;;;34.10;19.90;;;;;;;9.81;73.00;98385.88;234221;214;137418;-63
2023/11/16 22:13:04;;;;;;;27.70;18.10;;;;;;;9.75;73.10;98376.20;234335;214;148087;-62
2023/11/16 22:18:07;;;;;;;30.90;18.10;;;;;;;9.72;73.01;98376.06;234205;215;140193;-61
2023/11/16 22:23:11;;;;;;;28.30;18.60;;;;;;;9.76;73.00;98374.52;234550;211;138576;-61
2023/11/16 22:28:14;;;;;;;30.90;19.40;;;;;;;9.81;72.84;98367.10;234349;215;147342;-61
2023/11/16 22:33:17;;;;;;;30.70;18.50;;;;;;;9.84;72.75;98359.42;234272;215;139025;-61
2023/11/16 22:38:21;;;;;;;29.80;18.80;;;;;;;9.80;72.58;98362.52;234412;213;136929;-61
2023/11/16 22:43:25;;;;;;;30.10;18.70;;;;;;;9.77;72.59;98363.48;234370;215;147451;-62
2023/11/16 22:48:29;;;;;;;25.60;17.70;;;;;;;9.72;72.63;98358.11;234284;208;139178;-61
2023/11/16 22:53:36;;;;;;;28.00;18.00;;;;;;;9.68;72.83;98336.98;234498;215;138384;-62
2023/11/16 22:58:39;;;;;;;28.90;17.00;;;;;;;9.64;72.97;98322.40;234319;213;149631;-61
2023/11/16 23:03:42;;;;;;;26.40;16.60;;;;;;;9.63;73.07;98321.88;234337;215;142973;-62
2023/11/16 23:08:47;;;;;;;24.00;16.90;;;;;;;9.66;73.03;98325.58;234305;215;138816;-61
2023/11/16 23:13:51;;;;;;;26.30;17.50;;;;;;;9.69;72.88;98323.64;234275;214;147664;-60
2023/11/16 23:18:58;;;;;;;26.00;19.10;;;;;;;9.68;72.81;98311.83;234312;211;139458;-59
2023/11/16 23:24:04;;;;;;;26.90;18.50;;;;;;;9.67;72.89;98304.30;234332;215;137992;-60
2023/11/16 23:29:08;;;;;;;30.30;18.80;;;;;;;9.66;72.95;98304.20;234529;215;148751;-59